Time;durP1;ratioP1;P1;durP2;ratioP2;P2;SDS_P1;SDS_P2;PMS_P1;PMS_P2;Temp;Humidity;BMP_temperature;BMP_pressure;BME280_temperature;BME280_humidity;BME280_pressure;Samples;Min_cycle;Max_cycle;Signal;HPM_P1;HPM_P2
2023/07/11 00:00:17;;;;;;;;;;;28.70;95.50;28.60;99671.00;;;;334498;29;95647;-92
2023/07/11 00:00:28;;;;;;;;;;;28.70;95.50;28.50;99670.00;;;;337817;28;82579;-91
2023/07/11 00:00:40;;;;;;;;;;;28.70;95.60;28.50;99675.00;;;;337187;28;96200;-92
2023/07/11 00:00:52;;;;;;;;;;;28.70;95.50;28.50;99667.00;;;;335296;29;83419;-92
2023/07/11 00:01:17;;;;;;;;;;;28.70;95.60;28.50;99682.00;;;;335816;28;96271;-93
2023/07/11 00:01:29;;;;;;;;;;;28.70;95.70;28.50;99662.00;;;;337850;28;83371;-91
2023/07/11 00:01:41;;;;;;;;;;;28.60;95.60;28.50;99673.00;;;;337209;28;96295;-92
2023/07/11 00:01:53;;;;;;;;;;;28.60;95.50;28.50;99670.00;;;;337861;28;83520;-91
2023/07/11 00:02:05;;;;;;;;;;;28.70;95.60;28.60;99677.00;;;;338382;28;96518;-92
2023/07/11 00:02:18;;;;;;;;;;;28.60;95.50;28.60;99675.00;;;;337804;28;83348;-91
2023/07/11 00:02:30;;;;;;;;;;;28.60;95.50;28.60;99672.00;;;;337074;28;96867;-92
2023/07/11 00:02:45;;;;;;;;;;;28.60;95.50;28.60;99675.00;;;;336608;28;83363;-93
2023/07/11 00:02:57;;;;;;;;;;;28.70;95.60;28.60;99671.00;;;;337172;28;95937;-93
2023/07/11 00:03:10;;;;;;;;;;;28.70;95.60;28.70;99671.00;;;;340550;28;83474;-93
2023/07/11 00:03:23;;;;;;;;;;;28.70;95.70;28.70;99668.00;;;;337043;28;97718;-91
2023/07/11 00:03:35;;;;;;;;;;;28.70;95.70;28.70;99673.00;;;;336481;28;83492;-92
2023/07/11 00:03:47;;;;;;;;;;;28.70;95.90;28.70;99676.00;;;;338327;28;96465;-92
2023/07/11 00:03:58;;;;;;;;;;;28.70;95.80;28.70;99673.00;;;;338005;28;83292;-93
2023/07/11 00:04:10;;;;;;;;;;;28.70;95.70;28.70;99675.00;;;;335841;28;95431;-92
2023/07/11 00:04:22;;;;;;;;;;;28.70;95.70;28.70;99664.00;;;;337796;28;82544;-92
2023/07/11 00:04:34;;;;;;;;;;;28.70;95.70;28.60;99670.00;;;;335679;28;96722;-92
2023/07/11 00:04:46;;;;;;;;;;;28.70;95.80;28.60;99674.00;;;;336626;28;82628;-92
2023/07/11 00:04:58;;;;;;;;;;;28.70;95.80;28.50;99671.00;;;;335789;28;96735;-92
2023/07/11 00:05:14;;;;;;;;;;;28.70;95.70;28.50;99675.00;;;;337873;28;83503;-90
2023/07/11 00:05:25;;;;;;;;;;;28.70;95.80;28.40;99674.00;;;;337027;28;97512;-91
2023/07/11 00:05:37;;;;;;;;;;;28.70;95.90;28.40;99672.00;;;;337976;28;82530;-92
2023/07/11 00:06:08;;;;;;;;;;;28.70;95.90;28.30;99677.00;;;;338619;28;95531;-92
2023/07/11 00:06:21;;;;;;;;;;;28.70;95.90;28.30;99674.00;;;;336676;28;83568;-92
2023/07/11 00:06:32;;;;;;;;;;;28.60;96.00;28.30;99672.00;;;;337451;28;96001;-92
2023/07/11 00:06:44;;;;;;;;;;;28.60;95.90;28.30;99668.00;;;;338270;28;83269;-91
2023/07/11 00:06:56;;;;;;;;;;;28.60;95.90;28.40;99672.00;;;;337402;28;95572;-92
2023/07/11 00:07:08;;;;;;;;;;;28.60;95.80;28.40;99672.00;;;;336825;28;82478;-91
2023/07/11 00:07:20;;;;;;;;;;;28.60;95.80;28.40;99673.00;;;;337202;28;95331;-93
2023/07/11 00:07:32;;;;;;;;;;;28.60;95.90;28.30;99681.00;;;;339426;28;83461;-92
2023/07/11 00:07:44;;;;;;;;;;;28.60;95.90;28.40;99666.00;;;;337355;28;97643;-92
2023/07/11 00:07:56;;;;;;;;;;;28.60;95.90;28.40;99674.00;;;;336840;28;83199;-92
2023/07/11 00:08:08;;;;;;;;;;;28.60;95.90;28.60;99681.00;;;;337371;28;96598;-92
2023/07/11 00:08:19;;;;;;;;;;;28.60;95.90;28.60;99681.00;;;;335462;29;83414;-93
2023/07/11 00:08:31;;;;;;;;;;;28.60;95.90;28.50;99678.00;;;;335850;28;96642;-92
2023/07/11 00:08:43;;;;;;;;;;;28.60;96.00;28.40;99675.00;;;;337958;28;83430;-91
2023/07/11 00:08:55;;;;;;;;;;;28.60;96.00;28.40;99684.00;;;;336053;28;97176;-92
2023/07/11 00:09:07;;;;;;;;;;;28.60;96.00;28.40;99683.00;;;;335444;29;83406;-92
2023/07/11 00:09:19;;;;;;;;;;;28.60;96.00;28.30;99675.00;;;;337335;28;96666;-93
2023/07/11 00:09:31;;;;;;;;;;;28.60;96.00;28.30;99683.00;;;;338183;28;83359;-92
2023/07/11 00:09:47;;;;;;;;;;;28.60;96.10;28.40;99680.00;;;;334666;29;97461;-93
2023/07/11 00:09:59;;;;;;;;;;;28.50;96.10;28.40;99680.00;;;;335544;29;83406;-93
2023/07/11 00:10:12;;;;;;;;;;;28.50;96.10;28.40;99679.00;;;;337362;28;95945;-91
2023/07/11 00:10:24;;;;;;;;;;;28.50;96.00;28.50;99679.00;;;;336823;28;83425;-94
2023/07/11 00:10:36;;;;;;;;;;;28.50;95.90;28.60;99685.00;;;;336102;28;95559;-93
2023/07/11 00:10:48;;;;;;;;;;;28.50;96.00;28.50;99688.00;;;;338248;28;82558;-92
2023/07/11 00:11:00;;;;;;;;;;;28.50;96.20;28.60;99687.00;;;;335959;28;96686;-93
2023/07/11 00:11:16;;;;;;;;;;;28.50;96.10;28.50;99680.00;;;;335484;29;83439;-93
2023/07/11 00:11:27;;;;;;;;;;;28.50;96.10;28.40;99684.00;;;;336064;28;97111;-92
2023/07/11 00:11:39;;;;;;;;;;;28.60;96.30;28.40;99683.00;;;;336562;28;83538;-91
2023/07/11 00:11:51;;;;;;;;;;;28.50;96.40;28.50;99683.00;;;;336084;28;97963;-91
2023/07/11 00:12:03;;;;;;;;;;;28.50;96.30;28.50;99680.00;;;;336816;28;82642;-92
2023/07/11 00:12:16;;;;;;;;;;;28.50;96.30;28.40;99685.00;;;;334718;29;96600;-92
2023/07/11 00:12:28;;;;;;;;;;;28.50;96.40;28.50;99685.00;;;;338237;28;82524;-92
2023/07/11 00:12:41;;;;;;;;;;;28.50;96.40;28.40;99682.00;;;;338774;28;95186;-93
2023/07/11 00:12:52;;;;;;;;;;;28.50;96.50;28.50;99679.00;;;;335650;29;83393;-92
2023/07/11 00:13:04;;;;;;;;;;;28.50;96.40;28.50;99683.00;;;;335972;28;96798;-94
2023/07/11 00:13:16;;;;;;;;;;;28.50;96.40;28.40;99681.00;;;;339545;28;83546;-93
2023/07/11 00:13:28;;;;;;;;;;;28.50;96.50;28.40;99687.00;;;;336079;28;95845;-91
2023/07/11 00:13:40;;;;;;;;;;;28.50;96.50;28.50;99682.00;;;;336785;28;83498;-92
2023/07/11 00:13:53;;;;;;;;;;;28.50;96.40;28.60;99676.00;;;;334742;29;96241;-92
2023/07/11 00:14:05;;;;;;;;;;;28.50;96.40;28.60;99682.00;;;;335368;29;83439;-93
2023/07/11 00:14:17;;;;;;;;;;;28.50;96.40;28.50;99679.00;;;;334675;29;96703;-93
2023/07/11 00:14:29;;;;;;;;;;;28.50;96.40;28.50;99683.00;;;;336975;28;83520;-92
2023/07/11 00:14:41;;;;;;;;;;;28.50;96.30;28.40;99679.00;;;;336110;28;96997;-91
2023/07/11 00:14:53;;;;;;;;;;;28.50;96.30;28.40;99687.00;;;;336914;28;83474;-92
2023/07/11 00:15:06;;;;;;;;;;;28.50;96.40;28.40;99677.00;;;;337337;28;96620;-93
2023/07/11 00:15:18;;;;;;;;;;;28.50;96.50;28.40;99680.00;;;;338178;28;83549;-92
2023/07/11 00:15:30;;;;;;;;;;;28.50;96.40;28.50;99678.00;;;;337466;28;95658;-91
2023/07/11 00:15:42;;;;;;;;;;;28.50;96.40;28.50;99686.00;;;;336766;28;83510;-92
2023/07/11 00:15:59;;;;;;;;;;;28.50;96.40;28.50;99678.00;;;;336194;28;97717;-93
2023/07/11 00:16:12;;;;;;;;;;;28.50;96.50;28.40;99679.00;;;;336966;28;82578;-92
2023/07/11 00:16:24;;;;;;;;;;;28.50;96.70;28.40;99679.00;;;;334686;29;94713;-92
2023/07/11 00:16:36;;;;;;;;;;;28.50;96.60;28.40;99680.00;;;;336911;28;83985;-93
2023/07/11 00:16:49;;;;;;;;;;;28.50;96.60;28.40;99674.00;;;;338410;28;95436;-91
2023/07/11 00:17:03;;;;;;;;;;;28.50;96.50;28.40;99682.00;;;;339399;28;83359;-92
2023/07/11 00:17:14;;;;;;;;;;;28.50;96.40;28.40;99678.00;;;;337516;28;96474;-91
2023/07/11 00:17:26;;;;;;;;;;;28.50;96.50;28.40;99676.00;;;;334274;29;83895;-91
2023/07/11 00:17:38;;;;;;;;;;;28.50;96.40;28.50;99680.00;;;;333471;29;95988;-91
2023/07/11 00:17:50;;;;;;;;;;;28.50;96.40;28.50;99673.00;;;;338289;28;83286;-93
2023/07/11 00:18:02;;;;;;;;;;;28.50;96.40;28.50;99674.00;;;;337251;28;97378;-92
2023/07/11 00:18:14;;;;;;;;;;;28.50;96.40;28.40;99675.00;;;;338231;28;83405;-92
2023/07/11 00:18:26;;;;;;;;;;;28.50;96.60;28.40;99680.00;;;;333629;29;95489;-92
2023/07/11 00:18:38;;;;;;;;;;;28.50;96.70;28.30;99677.00;;;;334314;29;83410;-92
2023/07/11 00:18:50;;;;;;;;;;;28.50;96.70;28.40;99678.00;;;;337541;28;93855;-93
2023/07/11 00:19:01;;;;;;;;;;;28.50;96.60;28.40;99678.00;;;;338137;28;83499;-92
2023/07/11 00:19:13;;;;;;;;;;;28.50;96.60;28.40;99685.00;;;;334794;29;96338;-92
2023/07/11 00:19:26;;;;;;;;;;;28.50;96.50;28.40;99671.00;;;;335556;29;83408;-91
2023/07/11 00:19:53;;;;;;;;;;;28.50;96.50;28.40;99679.00;;;;334761;29;95908;-93
2023/07/11 00:20:08;;;;;;;;;;;28.50;96.50;28.40;99671.00;;;;336844;28;83437;-91
2023/07/11 00:20:20;;;;;;;;;;;28.50;96.50;28.30;99680.00;;;;337435;28;95150;-93
2023/07/11 00:20:32;;;;;;;;;;;28.50;97.10;28.30;99683.00;;;;336940;28;82486;-91
2023/07/11 00:20:44;;;;;;;;;;;28.50;97.10;28.30;99683.00;;;;337484;28;96493;-92
2023/07/11 00:20:56;;;;;;;;;;;28.50;97.10;28.30;99681.00;;;;339579;28;82400;-90
2023/07/11 00:21:07;;;;;;;;;;;28.50;96.90;28.30;99681.00;;;;336220;28;92713;-92
2023/07/11 00:21:20;;;;;;;;;;;28.50;96.90;28.30;99676.00;;;;339458;28;83384;-92
2023/07/11 00:21:32;;;;;;;;;;;28.50;96.80;28.40;99682.00;;;;337398;28;96610;-92
2023/07/11 00:21:44;;;;;;;;;;;28.50;96.70;28.40;99678.00;;;;335585;29;83430;-93
2023/07/11 00:21:56;;;;;;;;;;;28.50;96.70;28.40;99681.00;;;;334808;29;97018;-92
2023/07/11 00:22:07;;;;;;;;;;;28.50;96.70;28.30;99680.00;;;;338303;28;82478;-92
2023/07/11 00:22:20;;;;;;;;;;;28.50;96.80;28.40;99679.00;;;;335907;28;97893;-92
2023/07/11 00:22:32;;;;;;;;;;;28.50;96.80;28.30;99672.00;;;;336854;28;82879;-92
2023/07/11 00:22:44;;;;;;;;;;;28.50;96.90;28.30;99677.00;;;;333359;29;96858;-92
2023/07/11 00:22:56;;;;;;;;;;;28.50;96.80;28.30;99678.00;;;;336834;28;82506;-92
2023/07/11 00:23:09;;;;;;;;;;;28.40;97.00;28.30;99679.00;;;;337364;28;96252;-92
2023/07/11 00:23:21;;;;;;;;;;;28.50;96.80;28.30;99677.00;;;;336814;28;83390;-91
2023/07/11 00:23:33;;;;;;;;;;;28.50;96.90;28.30;99680.00;;;;334852;29;96274;-91
2023/07/11 00:23:44;;;;;;;;;;;28.50;96.90;28.30;99678.00;;;;335461;29;83554;-92
2023/07/11 00:24:03;;;;;;;;;;;28.40;96.80;28.30;99676.00;;;;333350;29;96842;-92
2023/07/11 00:24:15;;;;;;;;;;;28.50;97.00;28.30;99679.00;;;;334449;29;82536;-92
2023/07/11 00:24:27;;;;;;;;;;;28.40;96.90;28.30;99677.00;;;;336025;28;95458;-92
2023/07/11 00:24:39;;;;;;;;;;;28.40;96.90;28.30;99672.00;;;;336839;28;82505;-92
2023/07/11 00:24:51;;;;;;;;;;;28.40;97.10;28.30;99671.00;;;;338812;28;95339;-93
2023/07/11 00:25:04;;;;;;;;;;;28.40;97.00;28.40;99673.00;;;;336742;28;83520;-92
2023/07/11 00:25:16;;;;;;;;;;;28.40;96.90;28.30;99677.00;;;;336226;28;95810;-93
2023/07/11 00:25:28;;;;;;;;;;;28.40;96.90;28.40;99674.00;;;;336934;28;83548;-91
2023/07/11 00:25:40;;;;;;;;;;;28.40;96.80;28.40;99675.00;;;;335989;28;95696;-92
2023/07/11 00:25:52;;;;;;;;;;;28.40;96.80;28.40;99672.00;;;;336814;28;83523;-93
2023/07/11 00:26:04;;;;;;;;;;;28.40;96.80;28.40;99680.00;;;;336241;28;95420;-91
2023/07/11 00:26:16;;;;;;;;;;;28.40;96.90;28.30;99676.00;;;;338299;28;83274;-92
2023/07/11 00:26:28;;;;;;;;;;;28.40;97.10;28.30;99671.00;;;;335971;28;97565;-93
2023/07/11 00:26:40;;;;;;;;;;;28.40;97.20;28.30;99677.00;;;;336903;28;83324;-93
2023/07/11 00:26:52;;;;;;;;;;;28.40;97.20;28.20;99675.00;;;;335933;28;96595;-91
2023/07/11 00:27:04;;;;;;;;;;;28.40;97.20;28.40;99671.00;;;;335488;29;82567;-93
2023/07/11 00:27:17;;;;;;;;;;;28.40;97.20;28.30;99675.00;;;;337289;28;95383;-92
2023/07/11 00:27:29;;;;;;;;;;;28.40;97.20;28.30;99667.00;;;;339535;28;83426;-92
2023/07/11 00:27:40;;;;;;;;;;;28.40;97.20;28.40;99668.00;;;;336002;28;95583;-93
2023/07/11 00:27:52;;;;;;;;;;;28.40;97.10;28.20;99673.00;;;;338269;28;83443;-92
2023/07/11 00:28:04;;;;;;;;;;;28.40;97.20;28.20;99670.00;;;;337360;28;97055;-92
2023/07/11 00:28:16;;;;;;;;;;;28.40;97.40;28.20;99667.00;;;;338213;28;83374;-92
2023/07/11 00:28:28;;;;;;;;;;;28.40;97.40;28.30;99675.00;;;;337251;28;97795;-92
2023/07/11 00:28:39;;;;;;;;;;;28.40;97.20;28.30;99675.00;;;;338057;28;83550;-92
2023/07/11 00:28:51;;;;;;;;;;;28.40;97.20;28.30;99678.00;;;;334789;29;95584;-91
2023/07/11 00:29:18;;;;;;;;;;;28.40;97.20;28.30;99670.00;;;;332988;29;82525;-93
2023/07/11 00:29:30;;;;;;;;;;;28.40;97.10;28.40;99673.00;;;;333588;29;95327;-91
2023/07/11 00:29:42;;;;;;;;;;;28.40;97.20;28.30;99668.00;;;;336534;28;82637;-92
2023/07/11 00:29:54;;;;;;;;;;;28.40;97.20;28.30;99672.00;;;;334855;29;95856;-92
2023/07/11 00:30:06;;;;;;;;;;;28.40;97.50;28.40;99666.00;;;;336441;28;83340;-91
2023/07/11 00:30:18;;;;;;;;;;;28.40;97.50;28.40;99667.00;;;;338566;28;96816;-92
2023/07/11 00:30:30;;;;;;;;;;;28.40;97.40;28.40;99662.00;;;;339333;28;82564;-93
2023/07/11 00:30:42;;;;;;;;;;;28.40;97.40;28.40;99674.00;;;;335995;28;97658;-91
2023/07/11 00:30:54;;;;;;;;;;;28.40;97.40;28.40;99670.00;;;;338061;28;83526;-91
2023/07/11 00:31:07;;;;;;;;;;;28.40;97.30;28.50;99673.00;;;;337241;28;97224;-91
2023/07/11 00:31:20;;;;;;;;;;;28.40;97.50;28.50;99666.00;;;;335546;29;83465;-93
2023/07/11 00:31:32;;;;;;;;;;;28.40;97.50;28.30;99668.00;;;;335993;28;95643;-92
2023/07/11 00:31:44;;;;;;;;;;;28.40;97.50;28.30;99661.00;;;;339418;28;83504;-91
2023/07/11 00:31:55;;;;;;;;;;;28.40;97.60;28.40;99668.00;;;;337478;28;94196;-92
2023/07/11 00:32:07;;;;;;;;;;;28.40;97.50;28.50;99670.00;;;;334270;29;82482;-92
2023/07/11 00:32:19;;;;;;;;;;;28.40;97.50;28.50;99664.00;;;;337038;28;95767;-92
2023/07/11 00:32:33;;;;;;;;;;;28.40;97.40;28.40;99661.00;;;;338074;28;83277;-91
2023/07/11 00:32:44;;;;;;;;;;;28.40;97.40;28.40;99669.00;;;;337387;28;94907;-91
2023/07/11 00:32:56;;;;;;;;;;;28.40;97.50;28.40;99670.00;;;;339480;28;82353;-92
2023/07/11 00:33:08;;;;;;;;;;;28.40;97.50;28.30;99669.00;;;;334761;29;95860;-93
2023/07/11 00:33:23;;;;;;;;;;;28.40;97.50;28.30;99661.00;;;;335555;29;82604;-92
2023/07/11 00:33:35;;;;;;;;;;;28.40;97.60;28.30;99669.00;;;;333441;29;96868;-92
2023/07/11 00:33:47;;;;;;;;;;;28.40;97.50;28.30;99669.00;;;;338157;28;83480;-92
2023/07/11 00:33:58;;;;;;;;;;;28.40;97.40;28.30;99664.00;;;;338653;28;97021;-92
2023/07/11 00:34:10;;;;;;;;;;;28.40;97.50;28.40;99662.00;;;;339517;28;82562;-92
2023/07/11 00:34:24;;;;;;;;;;;28.40;97.40;28.40;99661.00;;;;334730;29;97404;-91
2023/07/11 00:34:37;;;;;;;;;;;28.40;97.80;28.50;99668.00;;;;338140;28;83463;-92
2023/07/11 00:34:48;;;;;;;;;;;28.40;97.60;28.50;99664.00;;;;337318;28;97506;-92
2023/07/11 00:35:00;;;;;;;;;;;28.40;97.60;28.40;99665.00;;;;333867;29;83579;-92
2023/07/11 00:35:12;;;;;;;;;;;28.40;97.60;28.30;99670.00;;;;337457;28;93781;-91
2023/07/11 00:35:24;;;;;;;;;;;28.40;97.70;28.20;99663.00;;;;338116;28;83410;-92
2023/07/11 00:35:37;;;;;;;;;;;28.40;97.80;28.20;99665.00;;;;334684;29;96439;-91
2023/07/11 00:35:50;;;;;;;;;;;28.40;97.70;28.30;99664.00;;;;338010;28;82590;-92
2023/07/11 00:36:02;;;;;;;;;;;28.40;97.70;28.30;99664.00;;;;336099;28;95851;-92
2023/07/11 00:36:15;;;;;;;;;;;28.40;97.60;28.30;99667.00;;;;335469;29;83370;-92
2023/07/11 00:36:26;;;;;;;;;;;28.40;97.80;28.30;99669.00;;;;336008;28;96092;-91
2023/07/11 00:36:38;;;;;;;;;;;28.40;97.60;28.30;99666.00;;;;339519;28;82538;-91
2023/07/11 00:36:50;;;;;;;;;;;28.40;97.60;28.30;99666.00;;;;337283;28;96791;-92
2023/07/11 00:37:02;;;;;;;;;;;28.40;97.60;28.30;99667.00;;;;335474;28;82587;-92
2023/07/11 00:37:15;;;;;;;;;;;28.40;97.60;28.30;99661.00;;;;337410;28;96080;-91
2023/07/11 00:37:26;;;;;;;;;;;28.40;97.60;28.40;99657.00;;;;338125;28;83408;-92
2023/07/11 00:37:38;;;;;;;;;;;28.40;97.60;28.40;99663.00;;;;337288;28;95193;-92
2023/07/11 00:37:50;;;;;;;;;;;28.40;97.70;28.40;99658.00;;;;338203;28;82463;-92
2023/07/11 00:38:02;;;;;;;;;;;28.40;97.70;28.30;99662.00;;;;334492;29;96853;-92
2023/07/11 00:38:14;;;;;;;;;;;28.40;97.80;28.20;99664.00;;;;336804;28;83427;-93
2023/07/11 00:38:25;;;;;;;;;;;28.40;97.90;28.30;99660.00;;;;337330;28;96647;-92
2023/07/11 00:38:37;;;;;;;;;;;28.40;97.80;28.30;99662.00;;;;338172;28;83432;-91
2023/07/11 00:38:49;;;;;;;;;;;28.40;98.00;28.30;99663.00;;;;338699;28;95869;-92
2023/07/11 00:39:02;;;;;;;;;;;28.40;97.70;28.30;99661.00;;;;339327;28;82628;-92
2023/07/11 00:39:16;;;;;;;;;;;28.40;97.60;28.30;99661.00;;;;334780;29;95221;-92
2023/07/11 00:39:30;;;;;;;;;;;28.40;97.70;28.30;99661.00;;;;335522;29;82734;-91
2023/07/11 00:39:42;;;;;;;;;;;28.40;97.70;28.30;99664.00;;;;334754;29;95647;-92
2023/07/11 00:39:54;;;;;;;;;;;28.40;97.80;28.30;99658.00;;;;339611;28;83239;-92
2023/07/11 00:40:06;;;;;;;;;;;28.40;97.80;28.30;99663.00;;;;337210;28;96825;-92
2023/07/11 00:40:18;;;;;;;;;;;28.40;97.80;28.30;99663.00;;;;335434;29;83416;-91
2023/07/11 00:40:30;;;;;;;;;;;28.40;97.80;28.20;99666.00;;;;336025;28;95562;-93
2023/07/11 00:40:43;;;;;;;;;;;28.40;97.80;28.30;99663.00;;;;339479;28;83524;-92
2023/07/11 00:40:55;;;;;;;;;;;28.40;97.80;28.30;99665.00;;;;335960;28;97229;-91
2023/07/11 00:41:08;;;;;;;;;;;28.40;97.60;28.40;99660.00;;;;335427;29;83581;-93
2023/07/11 00:41:20;;;;;;;;;;;28.40;97.80;28.40;99660.00;;;;338344;28;96764;-92
2023/07/11 00:41:31;;;;;;;;;;;28.40;97.80;28.30;99661.00;;;;336734;28;83486;-92
2023/07/11 00:41:43;;;;;;;;;;;28.40;97.90;28.20;99661.00;;;;337352;28;95784;-92
2023/07/11 00:41:55;;;;;;;;;;;28.40;97.90;28.20;99664.00;;;;338198;28;83397;-92
2023/07/11 00:42:07;;;;;;;;;;;28.40;98.00;28.20;99666.00;;;;335983;28;95844;-91
2023/07/11 00:42:19;;;;;;;;;;;28.40;97.90;28.20;99662.00;;;;339381;28;83540;-91
2023/07/11 00:42:31;;;;;;;;;;;28.40;98.10;28.30;99668.00;;;;337386;28;96932;-91
2023/07/11 00:42:43;;;;;;;;;;;28.40;97.90;28.30;99656.00;;;;334168;29;83494;-91
2023/07/11 00:42:55;;;;;;;;;;;28.40;97.90;28.40;99658.00;;;;336075;28;96815;-91
2023/07/11 00:43:10;;;;;;;;;;;28.30;97.90;28.30;99664.00;;;;338157;28;83460;-92
2023/07/11 00:43:21;;;;;;;;;;;28.40;98.00;28.40;99665.00;;;;336184;28;93727;-92
2023/07/11 00:43:33;;;;;;;;;;;28.40;98.00;28.40;99668.00;;;;339406;28;83438;-92
2023/07/11 00:43:45;;;;;;;;;;;28.40;98.10;28.50;99657.00;;;;338637;28;95660;-93
2023/07/11 00:43:57;;;;;;;;;;;28.40;98.00;28.50;99660.00;;;;335503;29;83416;-93
2023/07/11 00:44:12;;;;;;;;;;;28.40;98.00;28.40;99651.00;;;;335926;28;96613;-92
2023/07/11 00:44:23;;;;;;;;;;;28.40;98.00;28.30;99656.00;;;;340728;28;83449;-92
2023/07/11 00:44:51;;;;;;;;;;;28.40;98.10;28.40;99663.00;;;;334593;29;96913;-91
2023/07/11 00:45:03;;;;;;;;;;;28.40;98.00;28.40;99659.00;;;;335423;29;83418;-91
2023/07/11 00:45:53;;;;;;;;;;;28.40;98.10;28.10;99657.00;;;;333457;29;97010;-91
2023/07/11 00:46:18;;;;;;;;;;;28.40;98.40;28.10;99664.00;;;;335399;29;82420;-92
2023/07/11 00:46:30;;;;;;;;;;;28.40;98.40;28.10;99661.00;;;;333370;29;95396;-91
2023/07/11 00:46:42;;;;;;;;;;;28.30;98.30;28.10;99654.00;;;;334155;29;83254;-92
2023/07/11 00:46:55;;;;;;;;;;;28.30;98.60;28.00;99660.00;;;;336078;28;96446;-92
2023/07/11 00:47:07;;;;;;;;;;;28.30;98.30;28.00;99659.00;;;;334107;29;83543;-92
2023/07/11 00:47:20;;;;;;;;;;;28.30;98.40;28.10;99659.00;;;;332142;29;97376;-92
2023/07/11 00:47:32;;;;;;;;;;;28.30;98.60;28.10;99656.00;;;;335585;29;83373;-93
2023/07/11 00:47:44;;;;;;;;;;;28.30;98.30;28.10;99654.00;;;;333162;29;95721;-91
2023/07/11 00:47:56;;;;;;;;;;;28.30;98.30;28.10;99653.00;;;;334149;29;83392;-92
2023/07/11 00:48:08;;;;;;;;;;;28.30;98.40;28.10;99653.00;;;;335903;28;98034;-91
2023/07/11 00:48:20;;;;;;;;;;;28.30;98.40;28.10;99647.00;;;;335548;29;83441;-93
2023/07/11 00:48:34;;;;;;;;;;;28.20;98.40;28.00;99652.00;;;;333436;29;95661;-91
2023/07/11 00:48:50;;;;;;;;;;;28.20;98.50;28.00;99660.00;;;;334206;29;82622;-93
2023/07/11 00:49:02;;;;;;;;;;;28.20;98.50;28.00;99652.00;;;;334644;29;95240;-91
2023/07/11 00:49:16;;;;;;;;;;;28.20;98.50;28.20;99649.00;;;;335472;29;82485;-93
2023/07/11 00:49:27;;;;;;;;;;;28.20;98.40;28.20;99657.00;;;;333534;29;97150;-92
2023/07/11 00:49:40;;;;;;;;;;;28.20;98.40;28.10;99660.00;;;;335413;29;82522;-91
2023/07/11 00:50:06;;;;;;;;;;;28.20;98.60;28.00;99653.00;;;;334761;29;93260;-91
2023/07/11 00:50:17;;;;;;;;;;;28.20;98.50;28.20;99660.00;;;;336759;28;83406;-91
2023/07/11 00:50:29;;;;;;;;;;;28.20;98.50;28.10;99650.00;;;;335964;28;96381;-92
2023/07/11 00:50:41;;;;;;;;;;;28.20;98.50;28.10;99651.00;;;;334201;29;83433;-92
2023/07/11 00:50:53;;;;;;;;;;;28.20;98.60;28.10;99657.00;;;;335983;28;96764;-91
2023/07/11 00:51:06;;;;;;;;;;;28.20;98.60;28.10;99649.00;;;;335448;29;83560;-92
2023/07/11 00:51:21;;;;;;;;;;;28.20;98.60;28.10;99655.00;;;;333475;29;96873;-93
2023/07/11 00:51:35;;;;;;;;;;;28.20;98.60;28.00;99654.00;;;;334214;29;82502;-93
2023/07/11 00:51:56;;;;;;;;;;;28.20;98.90;28.10;99650.00;;;;334265;29;96173;-92
2023/07/11 00:52:07;;;;;;;;;;;28.10;98.70;28.00;99653.00;;;;335542;29;82484;-92
2023/07/11 00:52:19;;;;;;;;;;;28.10;98.70;27.90;99654.00;;;;334711;29;95953;-92
2023/07/11 00:52:33;;;;;;;;;;;28.10;98.80;27.90;99651.00;;;;334295;29;82514;-92
2023/07/11 00:52:45;;;;;;;;;;;28.10;98.70;27.90;99653.00;;;;333339;29;97987;-93
2023/07/11 00:52:57;;;;;;;;;;;28.10;98.80;28.10;99650.00;;;;334096;29;83447;-94
2023/07/11 00:53:09;;;;;;;;;;;28.10;98.70;27.90;99650.00;;;;333432;29;97004;-91
2023/07/11 00:53:21;;;;;;;;;;;28.10;98.90;27.90;99656.00;;;;334384;29;83780;-90
2023/07/11 00:53:33;;;;;;;;;;;28.10;98.80;27.90;99658.00;;;;334702;29;95265;-91
2023/07/11 00:53:44;;;;;;;;;;;28.10;98.80;27.90;99659.00;;;;336744;28;82364;-93
2023/07/11 00:53:56;;;;;;;;;;;28.10;98.80;27.90;99656.00;;;;334716;29;95239;-91
2023/07/11 00:54:11;;;;;;;;;;;28.10;98.80;27.90;99652.00;;;;334153;29;83430;-91
2023/07/11 00:54:29;;;;;;;;;;;28.10;98.80;27.80;99656.00;;;;333356;29;96880;-92
2023/07/11 00:54:41;;;;;;;;;;;28.10;98.80;27.80;99651.00;;;;336790;28;83000;-92
2023/07/11 00:54:55;;;;;;;;;;;28.00;98.80;27.70;99655.00;;;;334503;29;95589;-92
2023/07/11 00:55:08;;;;;;;;;;;28.00;98.90;27.70;99653.00;;;;335446;29;83267;-92
2023/07/11 00:55:20;;;;;;;;;;;28.00;99.00;27.90;99653.00;;;;334830;29;95448;-92
2023/07/11 00:55:32;;;;;;;;;;;28.00;98.80;27.80;99653.00;;;;335289;29;83422;-92
2023/07/11 00:55:44;;;;;;;;;;;28.00;98.90;27.80;99657.00;;;;333321;29;96317;-91
2023/07/11 00:55:56;;;;;;;;;;;28.00;99.00;27.80;99655.00;;;;336783;28;82512;-93
2023/07/11 00:56:08;;;;;;;;;;;28.00;99.10;27.90;99650.00;;;;334791;29;97198;-92
2023/07/11 00:56:23;;;;;;;;;;;28.00;99.00;28.00;99650.00;;;;332875;29;82565;-91
2023/07/11 00:56:38;;;;;;;;;;;28.00;99.00;28.00;99655.00;;;;333529;29;95438;-92
2023/07/11 00:56:50;;;;;;;;;;;28.00;98.90;27.90;99648.00;;;;335478;29;82547;-92
2023/07/11 00:57:03;;;;;;;;;;;28.00;98.80;27.90;99648.00;;;;333370;29;97443;-92
2023/07/11 00:57:14;;;;;;;;;;;28.00;98.90;28.00;99649.00;;;;338106;28;84061;-92
2023/07/11 00:57:27;;;;;;;;;;;28.00;98.90;28.00;99648.00;;;;333476;29;95900;-92
2023/07/11 00:57:40;;;;;;;;;;;28.00;98.90;27.90;99653.00;;;;334122;29;83529;-93
2023/07/11 00:57:52;;;;;;;;;;;28.00;99.00;27.90;99649.00;;;;336100;28;95590;-92
2023/07/11 00:58:04;;;;;;;;;;;28.00;98.80;27.90;99651.00;;;;334258;29;82520;-92
2023/07/11 00:58:17;;;;;;;;;;;28.00;98.80;27.80;99650.00;;;;333356;29;96493;-92
2023/07/11 00:58:28;;;;;;;;;;;28.00;98.90;27.80;99652.00;;;;335476;29;83383;-92
2023/07/11 00:58:40;;;;;;;;;;;28.00;99.00;27.80;99652.00;;;;333350;29;95420;-91
2023/07/11 00:58:52;;;;;;;;;;;28.00;99.00;27.80;99653.00;;;;336042;28;84053;-91
2023/07/11 00:59:04;;;;;;;;;;;28.00;99.00;27.90;99656.00;;;;337204;28;97254;-92
2023/07/11 00:59:17;;;;;;;;;;;28.00;98.90;27.90;99647.00;;;;338061;28;83451;-91
2023/07/11 00:59:29;;;;;;;;;;;28.00;98.80;27.90;99650.00;;;;335718;28;96743;-91
2023/07/11 00:59:41;;;;;;;;;;;28.00;98.80;27.90;99651.00;;;;339367;28;83447;-92
2023/07/11 00:59:53;;;;;;;;;;;28.00;98.80;27.80;99649.00;;;;340080;28;95351;-91
2023/07/11 01:00:06;;;;;;;;;;;28.00;98.90;27.80;99655.00;;;;337986;28;82575;-92
2023/07/11 01:00:18;;;;;;;;;;;28.00;99.00;27.90;99649.00;;;;337330;28;95595;-92
2023/07/11 01:00:29;;;;;;;;;;;28.00;99.00;27.90;99652.00;;;;336797;28;83349;-92
2023/07/11 01:00:41;;;;;;;;;;;28.00;99.00;27.80;99654.00;;;;335993;28;96644;-91
2023/07/11 01:00:53;;;;;;;;;;;28.00;99.00;27.80;99657.00;;;;336772;28;83432;-92
2023/07/11 01:01:05;;;;;;;;;;;28.00;98.90;27.90;99658.00;;;;335964;28;96827;-92
2023/07/11 01:01:17;;;;;;;;;;;28.00;98.90;27.90;99652.00;;;;336812;28;82536;-91
2023/07/11 01:01:30;;;;;;;;;;;28.00;99.00;27.80;99656.00;;;;337334;28;95896;-91
2023/07/11 01:01:43;;;;;;;;;;;28.00;98.90;27.80;99655.00;;;;337620;28;83553;-92
2023/07/11 01:02:16;;;;;;;;;;;28.00;99.00;27.80;99654.00;;;;337329;28;97015;-91
2023/07/11 01:02:28;;;;;;;;;;;28.00;98.90;27.80;99651.00;;;;336774;28;82498;-92
2023/07/11 01:02:40;;;;;;;;;;;27.90;99.00;27.70;99652.00;;;;337120;28;95041;-92
2023/07/11 01:02:52;;;;;;;;;;;27.90;99.00;27.80;99650.00;;;;336828;28;82587;-92
2023/07/11 01:03:04;;;;;;;;;;;27.90;99.00;27.80;99650.00;;;;334734;29;96487;-92
2023/07/11 01:03:21;;;;;;;;;;;27.90;99.00;28.00;99650.00;;;;336799;28;82271;-93
2023/07/11 01:03:33;;;;;;;;;;;28.00;99.00;28.00;99651.00;;;;335676;28;97644;-91
2023/07/11 01:03:46;;;;;;;;;;;28.00;99.00;28.00;99649.00;;;;338053;28;82639;-93
2023/07/11 01:03:58;;;;;;;;;;;28.00;99.00;27.90;99648.00;;;;337262;28;95655;-91